createdAt,value
2023-09-28T00:01:41.884Z,19.24
2023-09-28T00:04:08.768Z,19.29
2023-09-28T00:06:36.084Z,19.26
2023-09-28T00:09:02.934Z,19.26
2023-09-28T00:11:29.754Z,19.26
2023-09-28T00:13:56.715Z,19.24
2023-09-28T00:16:23.934Z,19.23
2023-09-28T00:18:50.716Z,19.23
2023-09-28T00:21:17.421Z,19.28
2023-09-28T00:23:44.164Z,19.22
2023-09-28T00:26:11.000Z,19.20
2023-09-28T00:28:37.768Z,19.12
2023-09-28T00:31:06.773Z,19.22
2023-09-28T00:33:33.584Z,19.23
2023-09-28T00:36:00.371Z,19.19
2023-09-28T00:38:27.134Z,19.22
2023-09-28T00:40:53.964Z,19.24
2023-09-28T00:43:27.841Z,19.09
2023-09-28T00:45:54.950Z,19.03
2023-09-28T00:48:21.999Z,19.01
2023-09-28T00:50:52.030Z,18.84
2023-09-28T00:53:22.741Z,18.78
2023-09-28T00:55:49.950Z,18.80
2023-09-28T00:58:17.138Z,18.74
2023-09-28T01:00:44.205Z,18.74
2023-09-28T01:03:13.371Z,18.70
2023-09-28T01:05:42.944Z,18.63
2023-09-28T01:08:12.768Z,18.64
2023-09-28T01:10:42.035Z,18.60
2023-09-28T01:13:13.932Z,18.60
2023-09-28T01:15:48.108Z,18.58
2023-09-28T01:18:19.828Z,18.57
2023-09-28T01:20:48.990Z,18.54
2023-09-28T01:23:16.316Z,18.55
2023-09-28T01:25:46.703Z,18.52
2023-09-28T01:28:14.359Z,18.58
2023-09-28T01:30:41.227Z,18.61
2023-09-28T01:33:10.592Z,18.68
2023-09-28T01:35:37.935Z,18.60
2023-09-28T01:38:13.660Z,18.68
2023-09-28T01:40:41.300Z,18.60
2023-09-28T01:43:08.788Z,18.65
2023-09-28T01:45:35.592Z,18.64
2023-09-28T01:48:04.480Z,18.63
2023-09-28T01:50:32.274Z,18.60
2023-09-28T01:52:59.056Z,18.60
2023-09-28T01:55:25.925Z,18.60
2023-09-28T01:57:52.823Z,18.60
2023-09-28T02:00:24.814Z,18.61
2023-09-28T02:02:54.380Z,18.65
2023-09-28T02:05:23.013Z,18.63
2023-09-28T02:07:50.728Z,18.65
2023-09-28T02:10:17.866Z,18.61
2023-09-28T02:12:45.589Z,18.64
2023-09-28T02:15:16.396Z,18.64
2023-09-28T02:17:45.782Z,18.58
2023-09-28T02:20:17.813Z,18.58
2023-09-28T02:22:46.706Z,18.57
2023-09-28T02:25:27.788Z,18.60
2023-09-28T02:27:54.808Z,18.55
2023-09-28T02:30:26.833Z,18.50
2023-09-28T02:32:57.593Z,18.54
2023-09-28T02:35:25.617Z,18.52
2023-09-28T02:37:53.621Z,18.50
2023-09-28T02:40:21.481Z,18.52
2023-09-28T02:42:51.564Z,18.43
2023-09-28T02:45:18.897Z,18.45
2023-09-28T02:47:48.436Z,18.36
2023-09-28T02:50:18.813Z,18.29
2023-09-28T02:52:48.963Z,18.23
2023-09-28T02:55:19.921Z,18.19
2023-09-28T02:57:48.571Z,18.03
2023-09-28T03:00:25.403Z,17.99
2023-09-28T03:02:53.659Z,17.91
2023-09-28T03:05:24.629Z,17.71
2023-09-28T03:07:52.357Z,17.76
2023-09-28T03:10:20.835Z,17.62
2023-09-28T03:12:49.009Z,17.65
2023-09-28T03:15:16.010Z,17.75
2023-09-28T03:17:43.800Z,17.69
2023-09-28T03:20:15.293Z,17.63
2023-09-28T03:22:43.985Z,17.55
2023-09-28T03:25:15.354Z,17.27
2023-09-28T03:27:42.890Z,17.38
2023-09-28T03:30:11.852Z,17.34
2023-09-28T03:32:40.304Z,17.32
2023-09-28T03:35:11.878Z,17.26
2023-09-28T03:37:39.300Z,17.44
2023-09-28T03:40:12.249Z,17.38
2023-09-28T03:42:40.135Z,17.11
2023-09-28T03:45:09.917Z,17.18
2023-09-28T03:47:40.992Z,17.20
2023-09-28T03:50:12.465Z,17.11
2023-09-28T03:52:40.602Z,17.08
2023-09-28T03:55:11.985Z,17.06
2023-09-28T03:57:39.867Z,17.07
2023-09-28T04:00:08.187Z,16.97
2023-09-28T04:02:35.158Z,16.86
2023-09-28T04:05:02.017Z,16.97
2023-09-28T04:07:29.137Z,16.86
2023-09-28T04:09:56.057Z,16.89
2023-09-28T04:12:23.031Z,16.89
2023-09-28T04:14:50.062Z,16.99
2023-09-28T04:17:17.736Z,17.04
2023-09-28T04:19:44.598Z,16.96
2023-09-28T04:22:11.344Z,16.83
2023-09-28T04:24:38.136Z,16.65
2023-09-28T04:27:05.103Z,16.65
2023-09-28T04:29:32.071Z,16.63
2023-09-28T04:31:58.891Z,16.49
2023-09-28T04:34:25.954Z,16.61
2023-09-28T04:36:52.692Z,16.39
2023-09-28T04:39:19.963Z,16.46
2023-09-28T04:41:47.527Z,16.51
2023-09-28T04:44:14.335Z,16.55
2023-09-28T04:46:41.157Z,16.49
2023-09-28T04:49:09.311Z,16.53
2023-09-28T04:51:36.084Z,16.35
2023-09-28T04:54:05.523Z,16.36
2023-09-28T04:56:33.450Z,16.36
2023-09-28T04:59:04.059Z,16.38
2023-09-28T05:01:32.279Z,16.32
2023-09-28T05:03:59.318Z,16.25
2023-09-28T05:06:26.128Z,16.17
2023-09-28T05:08:52.891Z,16.11
2023-09-28T05:11:19.727Z,15.94
2023-09-28T05:13:46.864Z,15.98
2023-09-28T05:16:13.673Z,15.91
2023-09-28T05:18:40.496Z,15.93
2023-09-28T05:21:07.281Z,16.01
2023-09-28T05:23:34.113Z,15.94
2023-09-28T05:26:02.723Z,15.97
2023-09-28T05:28:29.522Z,16.04
2023-09-28T05:30:56.399Z,16.20
2023-09-28T05:33:24.035Z,16.17
2023-09-28T05:35:50.789Z,16.05
2023-09-28T05:38:17.846Z,16.07
2023-09-28T05:40:44.662Z,16.08
2023-09-28T05:43:11.514Z,16.07
2023-09-28T05:45:38.813Z,16.05
2023-09-28T05:48:05.715Z,16.08
2023-09-28T05:50:35.378Z,16.13
2023-09-28T05:53:02.640Z,16.05
2023-09-28T05:55:29.413Z,16.17
2023-09-28T05:57:56.182Z,16.14
2023-09-28T06:00:23.064Z,16.26
2023-09-28T06:02:49.904Z,16.31
2023-09-28T06:05:17.206Z,16.35
2023-09-28T06:07:45.704Z,16.39
2023-09-28T06:10:12.490Z,16.42
2023-09-28T06:12:39.283Z,16.38
2023-09-28T06:15:10.353Z,16.56
2023-09-28T06:17:37.286Z,16.62
2023-09-28T06:20:06.856Z,16.68
2023-09-28T06:22:34.907Z,16.79
2023-09-28T06:25:03.475Z,16.84
2023-09-28T06:27:30.398Z,16.90
2023-09-28T06:33:40.289Z,16.89
2023-09-28T06:36:07.853Z,17.04
2023-09-28T06:38:34.771Z,17.15
2023-09-28T06:41:01.726Z,17.21
2023-09-28T06:43:28.527Z,17.37
2023-09-28T06:45:55.667Z,17.37
2023-09-28T06:48:27.272Z,17.50
2023-09-28T06:50:58.187Z,17.89
2023-09-28T06:53:26.092Z,18.23
2023-09-28T06:56:04.073Z,18.48
2023-09-28T06:58:40.790Z,18.43
2023-09-28T07:01:07.569Z,18.44
2023-09-28T07:03:34.387Z,18.70
2023-09-28T07:06:02.287Z,18.89
2023-09-28T07:08:29.128Z,18.95
2023-09-28T07:10:55.882Z,19.10
2023-09-28T07:13:22.714Z,19.18
2023-09-28T07:15:51.022Z,19.09
2023-09-28T07:18:18.124Z,19.28
2023-09-28T07:20:45.614Z,19.43
2023-09-28T07:23:12.521Z,19.56
2023-09-28T07:25:39.276Z,19.54
2023-09-28T07:28:06.279Z,19.61
2023-09-28T07:30:33.004Z,19.80
2023-09-28T07:32:59.928Z,20.01
2023-09-28T07:35:27.037Z,20.09
2023-09-28T07:37:54.112Z,20.43
2023-09-28T07:40:44.241Z,20.53
2023-09-28T07:43:13.050Z,20.62
2023-09-28T07:45:39.883Z,20.62
2023-09-28T07:48:07.296Z,20.77
2023-09-28T07:50:34.171Z,20.97
2023-09-28T07:53:01.194Z,21.38
2023-09-28T07:55:27.946Z,21.25
2023-09-28T07:58:00.193Z,21.41
2023-09-28T08:00:29.601Z,21.38
2023-09-28T08:02:56.858Z,22.09
2023-09-28T08:05:23.719Z,22.39
2023-09-28T08:08:00.138Z,22.77
2023-09-28T08:10:37.668Z,23.03
2023-09-28T08:13:04.679Z,23.28
2023-09-28T08:15:37.230Z,23.47
2023-09-28T08:18:05.426Z,23.23
2023-09-28T08:20:35.560Z,23.33
2023-09-28T08:23:04.874Z,23.25
2023-09-28T08:25:32.183Z,23.59
2023-09-28T08:27:59.063Z,23.93
2023-09-28T08:30:25.896Z,23.67
2023-09-28T08:32:55.039Z,24.49
2023-09-28T08:35:22.370Z,24.11
2023-09-28T08:37:49.530Z,25.06
2023-09-28T08:40:16.450Z,24.41
2023-09-28T08:42:47.679Z,24.08
2023-09-28T08:45:17.630Z,23.58
2023-09-28T08:47:52.631Z,23.02
2023-09-28T08:50:25.351Z,22.55
2023-09-28T08:52:52.811Z,22.29
2023-09-28T08:55:19.812Z,22.17
2023-09-28T08:57:47.902Z,22.06
2023-09-28T09:00:16.002Z,21.90
2023-09-28T09:02:46.428Z,21.78
2023-09-28T09:05:17.230Z,21.64
2023-09-28T09:07:44.650Z,21.34
2023-09-28T09:10:13.179Z,21.18
2023-09-28T09:12:40.697Z,21.30
2023-09-28T09:15:07.598Z,21.20
2023-09-28T09:17:35.205Z,21.28
2023-09-28T09:20:06.595Z,21.65
2023-09-28T09:22:44.912Z,21.85
2023-09-28T09:25:20.400Z,21.75
2023-09-28T09:27:47.172Z,21.66
2023-09-28T09:30:16.394Z,21.52
2023-09-28T09:32:44.491Z,21.69
2023-09-28T09:35:14.092Z,21.62
2023-09-28T09:37:52.182Z,21.56
2023-09-28T09:40:19.627Z,21.68
2023-09-28T09:42:46.387Z,21.42
2023-09-28T09:45:13.687Z,21.35
2023-09-28T09:47:59.652Z,21.38
2023-09-28T09:50:30.354Z,21.49
2023-09-28T09:52:58.373Z,21.61
2023-09-28T09:55:25.739Z,21.79
2023-09-28T09:58:00.257Z,21.72
2023-09-28T10:00:29.982Z,21.97
2023-09-28T10:02:57.542Z,21.85
2023-09-28T10:05:28.573Z,22.23
2023-09-28T10:07:57.787Z,22.22
2023-09-28T10:10:28.705Z,21.97
2023-09-28T10:12:58.724Z,22.08
2023-09-28T10:15:27.262Z,22.47
2023-09-28T10:17:54.936Z,22.71
2023-09-28T10:20:22.004Z,22.36
2023-09-28T10:22:49.335Z,22.48
2023-09-28T10:25:19.842Z,22.24
2023-09-28T10:27:46.828Z,22.30
2023-09-28T10:30:24.185Z,22.44
2023-09-28T10:32:55.924Z,22.44
2023-09-28T10:35:28.298Z,22.61
2023-09-28T10:38:22.163Z,22.60
2023-09-28T10:41:03.980Z,22.78
2023-09-28T10:43:38.866Z,23.32
2023-09-28T10:46:07.567Z,23.26
2023-09-28T10:48:48.230Z,23.80
2023-09-28T10:51:19.721Z,23.77
2023-09-28T10:53:47.208Z,23.91
2023-09-28T10:56:14.576Z,24.10
2023-09-28T10:58:47.222Z,24.37
2023-09-28T11:01:14.125Z,24.93
2023-09-28T11:03:41.783Z,24.92
2023-09-28T11:06:11.483Z,25.09
2023-09-28T11:08:38.873Z,24.80
2023-09-28T11:11:06.894Z,24.16
2023-09-28T11:13:34.394Z,23.74
2023-09-28T11:16:01.803Z,23.96
2023-09-28T11:18:28.582Z,23.46
2023-09-28T11:21:00.252Z,24.38
2023-09-28T11:23:27.862Z,24.16
2023-09-28T11:25:55.406Z,24.73
2023-09-28T11:28:25.322Z,24.49
2023-09-28T11:31:15.293Z,24.61
2023-09-28T11:33:46.513Z,24.34
2023-09-28T11:36:21.755Z,24.68
2023-09-28T11:38:50.347Z,24.99
2023-09-28T11:41:17.643Z,24.86
2023-09-28T11:43:46.159Z,24.13
2023-09-28T11:46:14.357Z,24.42
2023-09-28T11:48:41.175Z,24.86
2023-09-28T11:51:10.187Z,25.33
2023-09-28T11:53:43.338Z,25.47
2023-09-28T11:56:13.452Z,25.37
2023-09-28T11:58:40.715Z,26.04
2023-09-28T12:01:07.667Z,25.51
2023-09-28T12:03:34.704Z,25.53
2023-09-28T12:06:03.427Z,26.25
2023-09-28T12:08:30.437Z,26.73
2023-09-28T12:11:01.726Z,26.47
2023-09-28T12:13:28.753Z,25.94
2023-09-28T12:15:56.850Z,25.64
2023-09-28T12:18:23.802Z,26.56
2023-09-28T12:20:50.867Z,26.40
2023-09-28T12:23:19.663Z,26.21
2023-09-28T12:25:46.618Z,26.31
2023-09-28T12:28:13.444Z,27.12
2023-09-28T12:30:40.632Z,27.46
2023-09-28T12:33:09.879Z,27.32
2023-09-28T12:35:37.694Z,27.31
2023-09-28T12:38:06.163Z,27.12
2023-09-28T12:40:35.842Z,26.71
2023-09-28T12:43:07.097Z,26.25
2023-09-28T12:45:34.929Z,26.44
2023-09-28T12:48:03.553Z,25.91
2023-09-28T12:50:31.198Z,26.01
2023-09-28T12:52:58.935Z,26.29
2023-09-28T12:55:26.586Z,25.94
2023-09-28T12:57:55.604Z,25.94
2023-09-28T13:00:26.024Z,26.53
2023-09-28T13:02:53.617Z,26.16
2023-09-28T13:05:21.028Z,26.50
2023-09-28T13:07:48.115Z,26.67
2023-09-28T13:10:17.824Z,26.18
2023-09-28T13:12:44.959Z,26.26
2023-09-28T13:15:15.049Z,26.37
2023-09-28T13:17:42.715Z,26.79
2023-09-28T13:20:10.916Z,26.91
2023-09-28T13:22:38.682Z,27.17
2023-09-28T13:25:07.366Z,27.34
2023-09-28T13:27:35.899Z,26.77
2023-09-28T13:30:09.841Z,26.79
2023-09-28T13:32:39.688Z,26.15
2023-09-28T13:35:08.227Z,26.09
2023-09-28T13:37:34.968Z,26.37
2023-09-28T13:40:02.335Z,26.12
2023-09-28T13:42:29.056Z,26.56
2023-09-28T13:45:00.921Z,26.01
2023-09-28T13:47:28.173Z,26.57
2023-09-28T13:49:56.744Z,26.93
2023-09-28T13:52:25.327Z,27.48
2023-09-28T13:54:52.132Z,27.80
2023-09-28T13:57:19.387Z,27.49
2023-09-28T13:59:46.960Z,27.59
2023-09-28T14:02:15.284Z,27.25
2023-09-28T14:04:42.195Z,27.25
2023-09-28T14:07:09.027Z,28.01
2023-09-28T14:09:36.257Z,27.41
2023-09-28T14:12:03.134Z,27.63
2023-09-28T14:14:32.405Z,28.13
2023-09-28T14:17:08.456Z,28.14
2023-09-28T14:19:36.822Z,27.72
2023-09-28T14:22:04.618Z,27.38
2023-09-28T14:24:32.863Z,26.74
2023-09-28T14:27:00.358Z,26.98
2023-09-28T14:29:27.144Z,26.31
2023-09-28T14:31:54.375Z,26.35
2023-09-28T14:34:24.388Z,25.64
2023-09-28T14:36:51.324Z,25.77
2023-09-28T14:39:18.276Z,25.70
2023-09-28T14:41:45.374Z,25.77
2023-09-28T14:44:12.594Z,25.84
2023-09-28T14:46:39.400Z,25.65
2023-09-28T14:49:06.243Z,25.47
2023-09-28T14:51:33.036Z,25.38
2023-09-28T14:53:59.840Z,25.33
2023-09-28T14:56:26.602Z,25.54
2023-09-28T14:58:54.812Z,25.33
2023-09-28T15:01:21.909Z,25.34
2023-09-28T15:03:49.572Z,25.23
2023-09-28T15:06:16.325Z,25.54
2023-09-28T15:08:43.490Z,25.60
2023-09-28T15:11:10.456Z,25.31
2023-09-28T15:13:39.061Z,25.22
2023-09-28T15:16:08.201Z,25.27
2023-09-28T15:18:35.035Z,25.71
2023-09-28T15:21:06.931Z,25.30
2023-09-28T15:23:33.943Z,25.24
2023-09-28T15:26:06.497Z,24.96
2023-09-28T15:28:34.304Z,25.00
2023-09-28T15:31:01.976Z,25.13
2023-09-28T15:33:29.583Z,24.92
2023-09-28T15:35:58.989Z,24.59
2023-09-28T15:38:26.748Z,24.25
2023-09-28T15:40:54.195Z,24.35
2023-09-28T15:43:21.364Z,24.34
2023-09-28T15:45:49.699Z,24.25
2023-09-28T15:48:16.562Z,24.38
2023-09-28T15:50:43.506Z,24.20
2023-09-28T15:53:10.414Z,24.02
2023-09-28T15:55:37.221Z,23.94
2023-09-28T15:58:04.304Z,23.91
2023-09-28T16:00:38.026Z,23.84
2023-09-28T16:03:06.232Z,23.80
2023-09-28T16:05:33.264Z,23.52
2023-09-28T16:08:00.661Z,23.65
2023-09-28T16:10:27.671Z,23.58
2023-09-28T16:12:55.018Z,23.38
2023-09-28T16:15:21.805Z,23.03
2023-09-28T16:17:48.794Z,23.21
2023-09-28T16:20:15.815Z,23.02
2023-09-28T16:22:43.124Z,23.01
2023-09-28T16:25:10.229Z,22.88
2023-09-28T16:27:37.231Z,22.82
2023-09-28T16:30:04.330Z,22.77
2023-09-28T16:32:31.161Z,22.75
2023-09-28T16:34:57.974Z,22.74
2023-09-28T16:37:24.654Z,22.48
2023-09-28T16:39:51.479Z,22.59
2023-09-28T16:42:18.363Z,22.61
2023-09-28T16:44:45.147Z,22.27
2023-09-28T16:47:12.069Z,22.20
2023-09-28T16:49:38.820Z,22.30
2023-09-28T16:52:06.347Z,22.45
2023-09-28T16:54:33.095Z,22.32
2023-09-28T16:56:59.819Z,22.33
2023-09-28T16:59:26.671Z,22.12
2023-09-28T17:01:53.519Z,21.92
2023-09-28T17:04:20.581Z,21.86
2023-09-28T17:06:47.413Z,21.82
2023-09-28T17:09:14.663Z,21.83
2023-09-28T17:11:41.913Z,21.86
2023-09-28T17:14:08.905Z,21.66
2023-09-28T17:16:35.773Z,21.81
2023-09-28T17:19:02.787Z,21.71
2023-09-28T17:21:29.578Z,21.68
2023-09-28T17:23:56.487Z,21.42
2023-09-28T17:26:23.384Z,21.65
2023-09-28T17:28:51.215Z,21.58
2023-09-28T17:31:18.739Z,21.65
2023-09-28T17:33:46.008Z,21.61
2023-09-28T17:36:12.747Z,21.37
2023-09-28T17:38:39.524Z,21.35
2023-09-28T17:41:08.463Z,21.31
2023-09-28T17:43:38.318Z,21.28
2023-09-28T17:46:05.979Z,21.28
2023-09-28T17:48:32.813Z,21.16
2023-09-28T17:50:59.730Z,21.04
2023-09-28T17:53:26.483Z,20.80
2023-09-28T17:58:40.401Z,20.76
2023-09-28T18:01:07.238Z,20.88
2023-09-28T18:03:34.117Z,20.77
2023-09-28T18:06:00.908Z,20.77
2023-09-28T18:10:54.659Z,20.63
2023-09-28T18:13:21.419Z,20.55
2023-09-28T18:15:49.834Z,20.55
2023-09-28T18:18:17.100Z,20.46
2023-09-28T18:20:44.008Z,20.43
2023-09-28T18:23:10.846Z,20.43
2023-09-28T18:25:37.873Z,20.35
2023-09-28T18:28:06.331Z,20.36
2023-09-28T18:30:33.137Z,20.33
2023-09-28T18:33:00.187Z,20.26
2023-09-28T18:35:27.647Z,20.25
2023-09-28T18:37:56.906Z,20.25
2023-09-28T18:40:23.763Z,20.22
2023-09-28T18:42:50.672Z,20.18
2023-09-28T18:45:18.140Z,20.26
2023-09-28T18:47:45.137Z,20.28
2023-09-28T18:50:12.042Z,20.17
2023-09-28T18:52:39.017Z,20.24
2023-09-28T18:55:06.323Z,20.12
2023-09-28T18:57:34.186Z,20.05
2023-09-28T19:00:01.455Z,20.08
2023-09-28T19:02:28.970Z,20.14
2023-09-28T19:04:57.505Z,20.12
2023-09-28T19:07:24.415Z,20.11
2023-09-28T19:09:51.660Z,19.95
2023-09-28T19:12:18.447Z,19.88
2023-09-28T19:14:45.304Z,19.90
2023-09-28T19:17:12.147Z,19.78
2023-09-28T19:19:38.946Z,19.77
2023-09-28T19:22:06.101Z,19.75
2023-09-28T19:24:32.972Z,19.74
2023-09-28T19:27:00.084Z,19.63
2023-09-28T19:29:26.937Z,19.53
2023-09-28T19:31:57.267Z,19.61
2023-09-28T19:34:24.259Z,19.63
2023-09-28T19:36:51.556Z,19.42
2023-09-28T19:39:21.247Z,19.38
2023-09-28T19:41:48.043Z,19.43
2023-09-28T19:44:15.002Z,19.22
2023-09-28T19:46:41.792Z,19.33
2023-09-28T19:49:08.605Z,19.32
2023-09-28T19:51:36.232Z,19.24
2023-09-28T19:54:02.943Z,19.18
2023-09-28T19:56:30.964Z,19.30
2023-09-28T19:58:58.603Z,19.18
2023-09-28T20:01:26.129Z,19.02
2023-09-28T20:03:53.325Z,19.03
2023-09-28T20:06:20.187Z,19.03
2023-09-28T20:08:47.135Z,18.85
2023-09-28T20:11:14.058Z,18.81
2023-09-28T20:13:41.294Z,18.67
2023-09-28T20:16:08.095Z,18.70
2023-09-28T20:18:34.989Z,18.67
2023-09-28T20:21:03.197Z,18.64
2023-09-28T20:23:30.641Z,18.54
2023-09-28T20:25:57.495Z,18.50
2023-09-28T20:28:24.262Z,18.54
2023-09-28T20:30:51.098Z,18.43
2023-09-28T20:33:17.977Z,18.33
2023-09-28T20:35:45.897Z,18.33
2023-09-28T20:38:13.144Z,18.31
2023-09-28T20:40:40.963Z,18.19
2023-09-28T20:43:08.759Z,18.14
2023-09-28T20:45:39.699Z,18.24
2023-09-28T20:48:08.002Z,18.20
2023-09-28T20:50:35.269Z,18.16
2023-09-28T20:53:03.144Z,18.10
2023-09-28T20:55:31.140Z,18.02
2023-09-28T20:57:57.969Z,18.02
2023-09-28T21:00:25.460Z,18.03
2023-09-28T21:02:53.073Z,17.98
2023-09-28T21:05:19.899Z,17.96
2023-09-28T21:07:46.660Z,17.91
2023-09-28T21:10:14.466Z,17.92
2023-09-28T21:12:41.327Z,17.92
2023-09-28T21:15:10.131Z,17.92
2023-09-28T21:17:39.962Z,17.87
2023-09-28T21:20:08.951Z,17.91
2023-09-28T21:22:35.940Z,17.87
2023-09-28T21:25:02.927Z,17.87
2023-09-28T21:27:29.699Z,17.89
2023-09-28T21:29:56.538Z,17.86
2023-09-28T21:32:25.015Z,17.85
2023-09-28T21:34:53.286Z,17.86
2023-09-28T21:37:20.084Z,17.91
2023-09-28T21:39:46.918Z,17.92
2023-09-28T21:42:15.424Z,17.87
2023-09-28T21:44:42.351Z,17.92
2023-09-28T21:47:09.230Z,17.98
2023-09-28T21:49:36.034Z,17.98
2023-09-28T21:52:02.839Z,17.98
2023-09-28T21:54:29.674Z,18.06
2023-09-28T21:56:56.499Z,18.02
2023-09-28T21:59:23.233Z,18.09
2023-09-28T22:01:50.063Z,17.99
2023-09-28T22:04:16.897Z,18.13
2023-09-28T22:06:43.733Z,18.00
2023-09-28T22:09:11.668Z,18.00
2023-09-28T22:11:38.572Z,18.00
2023-09-28T22:14:05.897Z,18.00
2023-09-28T22:16:32.750Z,17.99
2023-09-28T22:18:59.492Z,17.89
2023-09-28T22:21:26.295Z,17.91
2023-09-28T22:23:53.972Z,17.85
2023-09-28T22:26:20.845Z,17.79
2023-09-28T22:28:48.392Z,17.85
2023-09-28T22:31:15.164Z,17.83
2023-09-28T22:33:42.047Z,17.87
2023-09-28T22:36:08.861Z,17.91
2023-09-28T22:38:37.159Z,17.89
2023-09-28T22:41:04.681Z,17.93
2023-09-28T22:43:31.685Z,17.98
2023-09-28T22:45:58.671Z,17.98
2023-09-28T22:48:25.758Z,18.00
2023-09-28T22:50:52.777Z,18.14
2023-09-28T22:53:19.726Z,18.13
2023-09-28T22:55:46.890Z,18.19
2023-09-28T22:58:13.756Z,18.14
2023-09-28T23:00:40.652Z,18.21
2023-09-28T23:03:07.548Z,18.24
2023-09-28T23:05:34.661Z,18.23
2023-09-28T23:08:02.739Z,18.26
2023-09-28T23:10:30.289Z,18.30
2023-09-28T23:12:57.519Z,18.27
2023-09-28T23:15:24.297Z,18.29
2023-09-28T23:17:51.176Z,18.26
2023-09-28T23:20:24.087Z,18.20
2023-09-28T23:22:53.552Z,18.19
2023-09-28T23:25:20.661Z,18.17
2023-09-28T23:27:49.591Z,18.17
2023-09-28T23:30:20.250Z,18.19
2023-09-28T23:32:50.469Z,18.30
2023-09-28T23:35:24.729Z,18.29
2023-09-28T23:37:53.633Z,18.30
2023-09-28T23:40:23.829Z,18.27
2023-09-28T23:42:51.954Z,18.29
2023-09-28T23:45:20.872Z,18.34
2023-09-28T23:47:49.029Z,18.33
2023-09-28T23:50:18.189Z,18.40
2023-09-28T23:52:45.319Z,18.34
2023-09-28T23:55:13.736Z,18.41
